createdAt,value
2022-11-01T00:00:32.274Z,51.47
2022-11-01T00:05:39.067Z,47.73
2022-11-01T00:10:43.917Z,47.50
2022-11-01T00:15:49.358Z,47.77
2022-11-01T00:20:54.428Z,47.47
2022-11-01T00:26:02.791Z,47.53
2022-11-01T00:31:11.747Z,46.93
2022-11-01T00:36:14.807Z,47.62
2022-11-01T00:41:21.050Z,47.37
2022-11-01T00:46:26.345Z,48.63
2022-11-01T00:51:31.803Z,46.77
2022-11-01T00:56:37.151Z,47.97
2022-11-01T01:01:42.751Z,47.57
2022-11-01T01:06:49.549Z,46.37
2022-11-01T01:11:55.452Z,47.43
2022-11-01T01:17:02.198Z,47.07
2022-11-01T01:22:07.847Z,46.65
2022-11-01T01:27:14.918Z,47.73
2022-11-01T01:37:27.099Z,46.70
2022-11-01T01:42:34.943Z,46.53
2022-11-01T01:47:43.573Z,48.17
2022-11-01T01:53:00.946Z,47.07
2022-11-01T01:58:07.785Z,46.37
2022-11-01T02:03:14.191Z,46.57
2022-11-01T02:15:22.239Z,45.90
2022-11-01T02:20:45.925Z,45.88
2022-11-01T02:26:02.797Z,45.03
2022-11-01T02:31:36.992Z,44.67
2022-11-01T02:36:50.793Z,45.67
2022-11-01T02:42:15.412Z,46.33
2022-11-01T02:47:21.228Z,45.97
2022-11-01T02:52:29.862Z,45.23
2022-11-01T02:57:38.399Z,45.27
2022-11-01T03:02:46.006Z,46.07
2022-11-01T03:08:00.774Z,45.77
2022-11-01T03:13:31.746Z,45.03
2022-11-01T03:18:42.637Z,46.47
2022-11-01T03:24:08.882Z,44.87
2022-11-01T03:29:15.914Z,45.23
2022-11-01T03:34:22.554Z,44.20
2022-11-01T03:44:37.794Z,44.57
2022-11-01T03:49:42.741Z,45.00
2022-11-01T03:54:47.999Z,44.83
2022-11-01T03:59:54.589Z,43.97
2022-11-01T04:04:59.414Z,43.97
2022-11-01T04:10:05.818Z,44.63
2022-11-01T04:15:30.021Z,43.78
2022-11-01T04:20:35.907Z,44.47
2022-11-01T04:25:41.456Z,44.60
2022-11-01T04:30:46.405Z,44.83
2022-11-01T04:35:52.885Z,45.05
2022-11-01T04:40:59.062Z,45.03
2022-11-01T04:46:05.039Z,44.35
2022-11-01T04:51:11.728Z,44.33
2022-11-01T04:56:18.109Z,44.23
2022-11-01T05:01:23.742Z,44.93
2022-11-01T05:06:29.954Z,44.40
2022-11-01T05:11:34.914Z,44.30
2022-11-01T05:16:41.349Z,44.37
2022-11-01T05:21:46.954Z,45.13
2022-11-01T05:26:51.859Z,45.30
2022-11-01T05:31:57.361Z,44.53
2022-11-01T05:37:03.540Z,46.17
2022-11-01T05:42:09.616Z,44.50
2022-11-01T05:47:17.483Z,44.73
2022-11-01T05:52:24.306Z,44.53
2022-11-01T05:57:33.420Z,47.10
2022-11-01T06:02:37.192Z,47.03
2022-11-01T06:07:42.740Z,45.60
2022-11-01T06:13:01.276Z,45.70
2022-11-01T06:18:06.883Z,45.67
2022-11-01T06:28:18.840Z,46.23
2022-11-01T06:33:24.298Z,46.90
2022-11-01T06:38:30.261Z,46.42
2022-11-01T06:43:35.525Z,45.05
2022-11-01T06:48:41.912Z,46.37
2022-11-01T06:53:46.867Z,45.87
2022-11-01T06:58:52.020Z,47.37
2022-11-01T07:03:57.702Z,46.90
2022-11-01T07:09:03.964Z,47.13
2022-11-01T07:14:08.872Z,48.63
2022-11-01T07:19:14.019Z,52.97
2022-11-01T07:24:19.728Z,54.60
2022-11-01T07:29:25.195Z,63.83
2022-11-01T07:34:30.458Z,55.73
2022-11-01T07:39:36.014Z,52.97
2022-11-01T07:44:43.314Z,52.43
2022-11-01T07:49:50.887Z,52.77
2022-11-01T07:54:55.874Z,53.73
2022-11-01T08:00:01.031Z,58.63
2022-11-01T08:05:06.902Z,55.93
2022-11-01T08:10:14.033Z,54.43
2022-11-01T08:15:19.050Z,58.40
2022-11-01T08:20:25.848Z,54.93
2022-11-01T08:25:31.968Z,53.20
2022-11-01T08:30:38.758Z,55.23
2022-11-01T08:35:50.066Z,55.00
2022-11-01T08:40:52.709Z,54.60
2022-11-01T08:46:00.709Z,51.90
2022-11-01T08:51:05.679Z,53.63
2022-11-01T08:56:12.070Z,54.53
2022-11-01T09:06:23.955Z,54.98
2022-11-01T09:11:31.021Z,52.90
2022-11-01T09:16:37.146Z,55.27
2022-11-01T09:26:50.833Z,60.43
2022-11-01T09:31:56.742Z,58.15
2022-11-01T09:37:03.008Z,52.93
2022-11-01T09:42:23.638Z,53.60
2022-11-01T09:47:30.887Z,54.17
2022-11-01T09:52:36.641Z,54.20
2022-11-01T09:57:46.639Z,52.45
2022-11-01T10:08:38.355Z,52.30
2022-11-01T10:13:52.218Z,52.27
2022-11-01T10:19:18.237Z,55.57
2022-11-01T10:24:29.676Z,55.78
2022-11-01T10:30:02.625Z,52.10
2022-11-01T10:35:17.242Z,52.03
2022-11-01T10:40:46.096Z,51.10
2022-11-01T10:45:55.269Z,50.53
2022-11-01T10:51:04.282Z,52.60
2022-11-01T10:56:12.552Z,51.07
2022-11-01T11:01:27.585Z,50.93
2022-11-01T11:06:36.651Z,51.33
2022-11-01T11:11:44.297Z,51.40
2022-11-01T11:17:00.805Z,52.03
2022-11-01T11:22:08.992Z,51.75
2022-11-01T11:27:23.847Z,52.93
2022-11-01T11:32:36.575Z,53.15
2022-11-01T11:37:44.288Z,51.37
2022-11-01T11:42:51.884Z,51.07
2022-11-01T11:48:00.538Z,51.60
2022-11-01T11:53:09.220Z,51.67
2022-11-01T11:58:29.279Z,51.28
2022-11-01T12:03:46.311Z,50.97
2022-11-01T12:09:00.187Z,50.90
2022-11-01T12:14:26.770Z,51.67
2022-11-01T12:19:33.446Z,50.65
2022-11-01T12:24:46.865Z,51.20
2022-11-01T12:29:55.045Z,51.27
2022-11-01T12:35:03.314Z,51.27
2022-11-01T12:40:12.606Z,50.53
2022-11-01T12:45:27.246Z,50.97
2022-11-01T12:50:49.601Z,51.20
2022-11-01T12:55:58.362Z,51.30
2022-11-01T13:01:35.018Z,51.20
2022-11-01T13:07:03.300Z,51.58
2022-11-01T13:12:20.780Z,51.18
2022-11-01T13:17:49.271Z,50.97
2022-11-01T13:23:14.291Z,51.43
2022-11-01T13:28:28.635Z,51.37
2022-11-01T13:33:42.552Z,50.98
2022-11-01T13:38:55.945Z,51.60
2022-11-01T13:44:08.395Z,50.80
2022-11-01T13:49:33.083Z,50.40
2022-11-01T13:54:42.374Z,50.73
2022-11-01T13:59:57.244Z,50.30
2022-11-01T14:05:10.620Z,50.23
2022-11-01T14:10:34.152Z,49.60
2022-11-01T14:15:58.992Z,49.63
2022-11-01T14:21:08.349Z,49.83
2022-11-01T14:26:25.253Z,49.27
2022-11-01T14:31:34.420Z,50.00
2022-11-01T14:36:42.658Z,49.33
2022-11-01T14:41:55.952Z,49.47
2022-11-01T14:47:01.608Z,49.58
2022-11-01T14:52:15.727Z,49.00
2022-11-01T14:57:32.103Z,49.40
2022-11-01T15:02:39.166Z,49.75
2022-11-01T15:07:52.634Z,49.30
2022-11-01T15:13:02.721Z,49.65
2022-11-01T15:18:20.505Z,49.63
2022-11-01T15:23:38.612Z,49.23
2022-11-01T15:28:53.958Z,49.55
2022-11-01T15:34:05.257Z,50.13
2022-11-01T15:39:25.740Z,49.73
2022-11-01T15:44:31.152Z,50.53
2022-11-01T15:49:48.677Z,49.57
2022-11-01T15:55:12.165Z,49.60
2022-11-01T16:00:26.322Z,49.42
2022-11-01T16:05:34.348Z,49.83
2022-11-01T16:10:44.228Z,50.50
2022-11-01T16:16:02.781Z,49.57
2022-11-01T16:21:25.135Z,49.73
2022-11-01T16:26:30.932Z,50.50
2022-11-01T16:31:37.704Z,50.25
2022-11-01T16:36:43.473Z,49.70
2022-11-01T16:41:49.953Z,51.37
2022-11-01T16:46:56.040Z,49.50
2022-11-01T16:52:02.215Z,49.40
2022-11-01T16:57:30.945Z,49.97
2022-11-01T17:02:37.557Z,49.97
2022-11-01T17:07:43.209Z,49.73
2022-11-01T17:12:49.546Z,50.57
2022-11-01T17:17:57.825Z,49.80
2022-11-01T17:23:03.746Z,57.23
2022-11-01T17:28:09.071Z,61.97
2022-11-01T17:33:21.478Z,51.40
2022-11-01T17:38:32.701Z,49.67
2022-11-01T17:43:37.741Z,49.50
2022-11-01T17:48:46.008Z,48.87
2022-11-01T17:53:59.828Z,57.60
2022-11-01T17:59:05.129Z,52.37
2022-11-01T18:04:10.789Z,58.37
2022-11-01T18:09:25.710Z,59.27
2022-11-01T18:14:49.620Z,57.90
2022-11-01T18:20:11.893Z,58.47
2022-11-01T18:25:21.789Z,52.43
2022-11-01T18:30:29.057Z,59.87
2022-11-01T18:35:40.901Z,54.07
2022-11-01T18:40:58.470Z,57.50
2022-11-01T18:51:23.909Z,55.40
2022-11-01T18:56:31.199Z,51.18
2022-11-01T19:01:41.130Z,52.73
2022-11-01T19:06:49.842Z,51.10
2022-11-01T19:11:58.458Z,52.80
2022-11-01T19:17:04.917Z,50.27
2022-11-01T19:22:29.342Z,49.93
2022-11-01T19:27:35.978Z,50.63
2022-11-01T19:32:41.916Z,51.63
2022-11-01T19:43:04.208Z,50.92
2022-11-01T19:48:13.665Z,53.10
2022-11-01T19:53:35.242Z,55.43
2022-11-01T19:59:03.688Z,56.70
2022-11-01T20:04:32.738Z,57.57
2022-11-01T20:09:41.803Z,51.57
2022-11-01T20:14:46.774Z,51.53
2022-11-01T20:19:57.626Z,50.30
2022-11-01T20:25:04.050Z,51.90
2022-11-01T20:30:11.784Z,51.40
2022-11-01T20:35:18.064Z,54.48
2022-11-01T20:40:25.694Z,52.65
2022-11-01T20:45:30.605Z,56.97
2022-11-01T20:50:36.086Z,55.90
2022-11-01T20:55:44.518Z,51.77
2022-11-01T21:05:58.069Z,50.73
2022-11-01T21:11:06.753Z,50.85
2022-11-01T21:16:14.919Z,52.03
2022-11-01T21:21:45.301Z,54.37
2022-11-01T21:26:46.059Z,51.20
2022-11-01T21:31:51.625Z,50.93
2022-11-01T21:37:01.179Z,49.40
2022-11-01T21:42:32.344Z,52.00
2022-11-01T21:47:45.433Z,50.20
2022-11-01T21:52:49.006Z,51.10
2022-11-01T21:57:54.462Z,49.93
2022-11-01T22:02:59.945Z,48.27
2022-11-01T22:08:05.281Z,48.53
2022-11-01T22:13:10.747Z,48.50
2022-11-01T22:18:18.791Z,48.55
2022-11-01T22:23:22.694Z,48.87
2022-11-01T22:28:28.826Z,47.80
2022-11-01T22:33:36.401Z,47.78
2022-11-01T22:38:43.546Z,48.97
2022-11-01T22:43:51.092Z,49.80
2022-11-01T22:49:05.150Z,49.35
2022-11-01T22:54:31.140Z,48.07
2022-11-01T23:04:43.449Z,47.15
2022-11-01T23:09:49.768Z,49.53
2022-11-01T23:14:55.496Z,49.43
2022-11-01T23:20:04.013Z,49.30
2022-11-01T23:25:10.504Z,49.23
2022-11-01T23:35:22.715Z,49.38
2022-11-01T23:40:31.100Z,48.63
2022-11-01T23:45:36.154Z,49.93
2022-11-01T23:50:43.864Z,49.90
2022-11-01T23:55:52.400Z,48.53
